Weather at Rarotonga International Airport

Public forecast

Using degrees Celsius for public forecast. Weather courtesy of forecast.io.

Current aviation weather report (METAR) for Rarotonga International Airport

Retrieved 2022/01/16 10:30 UTC (10 minutes ago):

NCRG 161030Z AUTO 11008KT 070V210 9999 -RA BKN018/// BKN031/// OVC055/// 27/25 Q1004

Aviation forecast (TAF) for Rarotonga International Airport

Retrieved 2022/01/16 06:00 UTC (5 hours ago):

TAF NCRG 160515Z 1606/1706 10006KT 9999 SCT022 BKN040 PROB40 TEMPO 1606/1706 5000 TSRA BKN015 FEW017CB PROB40 TEMPO 1617/1706 10018G28KT